Time;durP1;ratioP1;P1;durP2;ratioP2;P2;SDS_P1;SDS_P2;PMS_P1;PMS_P2;Temp;Humidity;BMP_temperature;BMP_pressure;BME280_temperature;BME280_humidity;BME280_pressure;Samples;Min_cycle;Max_cycle;Signal;HPM_P1;HPM_P2
2022/09/30 00:01:33;;;;;;;3.75;1.83;;;;;;;18.92;45.25;100709.84;5063200;28;20116;-63
2022/09/30 00:03:59;;;;;;;3.90;2.05;;;;;;;18.95;44.95;100720.16;5063022;28;20110;-64
2022/09/30 00:06:26;;;;;;;4.35;2.38;;;;;;;18.88;45.03;100709.25;5063580;28;20411;-64
2022/09/30 00:08:52;;;;;;;4.13;1.90;;;;;;;18.91;45.06;100724.03;5062786;28;20016;-65
2022/09/30 00:11:24;;;;;;;4.53;1.90;;;;;;;18.90;44.89;100730.25;5063322;28;20037;-65
2022/09/30 00:13:50;;;;;;;3.50;1.80;;;;;;;18.90;45.12;100731.13;5062794;28;20028;-65
2022/09/30 00:16:18;;;;;;;5.25;1.90;;;;;;;18.89;45.01;100729.44;5061997;28;20036;-64
2022/09/30 00:18:44;;;;;;;7.32;2.10;;;;;;;18.81;44.92;100726.59;5062890;28;20037;-65
2022/09/30 00:21:11;;;;;;;4.30;1.70;;;;;;;18.89;44.95;100739.16;5062955;28;20028;-66
2022/09/30 00:23:37;;;;;;;5.07;1.77;;;;;;;18.88;45.10;100734.84;5062878;28;20124;-65
2022/09/30 00:26:06;;;;;;;4.65;2.10;;;;;;;18.84;44.66;100729.81;5062745;28;20024;-65
2022/09/30 00:28:32;;;;;;;4.32;2.20;;;;;;;18.86;44.79;100740.25;5062362;28;20060;-66
2022/09/30 00:31:03;;;;;;;3.35;1.92;;;;;;;18.77;44.63;100720.75;5062843;28;20070;-64
2022/09/30 00:33:28;;;;;;;4.30;2.13;;;;;;;18.80;44.82;100728.41;5062673;28;20029;-66
2022/09/30 00:35:53;;;;;;;5.20;2.10;;;;;;;18.81;44.49;100737.16;5062272;28;20017;-64
2022/09/30 00:38:19;;;;;;;4.03;1.90;;;;;;;18.79;44.94;100734.63;5062615;28;20261;-64
2022/09/30 00:40:44;;;;;;;5.07;2.03;;;;;;;18.71;44.84;100721.25;5062541;28;20063;-64
2022/09/30 00:43:13;;;;;;;4.95;2.15;;;;;;;18.78;44.65;100732.13;5062425;28;20112;-65
2022/09/30 00:45:50;;;;;;;3.88;2.05;;;;;;;18.68;44.56;100710.97;5062396;28;20432;-65
2022/09/30 00:48:28;;;;;;;5.50;2.00;;;;;;;18.75;44.41;100725.28;5062170;28;20024;-66
2022/09/30 00:50:54;;;;;;;4.95;2.30;;;;;;;18.73;44.40;100724.59;5061928;28;20051;-65
2022/09/30 00:53:29;;;;;;;5.88;2.10;;;;;;;18.63;44.47;100715.81;5062403;28;20082;-67
2022/09/30 00:56:03;;;;;;;5.93;2.50;;;;;;;18.74;44.47;100734.19;5062100;28;20024;-65
2022/09/30 00:58:35;;;;;;;;;;;;;;;18.72;44.26;100733.47;5062439;28;20061;-65
2022/09/30 01:01:02;;;;;;;5.60;2.00;;;;;;;18.66;44.26;100724.28;5062006;28;19919;-65
2022/09/30 01:03:31;;;;;;;3.55;1.98;;;;;;;18.70;44.38;100729.31;5062342;28;20345;-66
2022/09/30 01:05:57;;;;;;;4.13;2.10;;;;;;;18.74;44.17;100733.34;5061902;28;20041;-64
2022/09/30 01:08:23;;;;;;;3.60;2.00;;;;;;;18.71;44.37;100733.59;5061933;28;20040;-65
2022/09/30 01:10:49;;;;;;;5.97;2.28;;;;;;;18.67;44.44;100723.34;5061757;28;20024;-65
2022/09/30 01:13:16;;;;;;;4.38;2.10;;;;;;;18.74;44.04;100730.72;5061552;28;20472;-66
2022/09/30 01:16:05;;;;;;;5.72;2.13;;;;;;;18.74;44.04;100733.34;5062215;28;20028;-67
2022/09/30 01:18:52;;;;;;;4.93;2.00;;;;;;;18.72;44.12;100733.47;5061828;28;20059;-64
2022/09/30 01:21:52;;;;;;;5.82;2.10;;;;;;;18.72;43.91;100737.94;5061840;28;20031;-65
2022/09/30 01:24:39;;;;;;;7.63;2.40;;;;;;;18.70;43.90;100732.78;5062077;28;20037;-66
2022/09/30 01:27:30;;;;;;;5.18;2.10;;;;;;;18.62;44.05;100724.69;5061637;28;20033;-64
2022/09/30 01:30:12;;;;;;;4.68;2.55;;;;;;;18.68;44.09;100732.91;5061655;28;20380;-65
2022/09/30 01:33:06;;;;;;;5.47;2.28;;;;;;;18.61;44.00;100725.63;5061663;28;20325;-64
2022/09/30 01:35:59;;;;;;;4.35;2.30;;;;;;;18.66;43.98;100732.22;5061329;28;20040;-64
2022/09/30 01:38:28;;;;;;;5.43;2.40;;;;;;;18.64;44.05;100730.66;5061317;28;20042;-64
2022/09/30 01:40:59;;;;;;;4.25;2.25;;;;;;;18.63;44.17;100729.00;5061472;28;20361;-64
2022/09/30 01:43:37;;;;;;;3.80;2.10;;;;;;;18.61;44.01;100730.91;5061461;28;20127;-64
2022/09/30 01:46:20;;;;;;;4.18;2.10;;;;;;;18.60;43.84;100738.00;5061247;28;20035;-67
2022/09/30 01:48:56;;;;;;;4.20;2.40;;;;;;;18.54;43.78;100722.69;5061293;28;20087;-64
2022/09/30 01:51:35;;;;;;;5.43;2.42;;;;;;;18.55;44.03;100731.44;5061280;28;20130;-66
2022/09/30 01:54:15;;;;;;;4.63;2.13;;;;;;;18.57;43.80;100727.72;5061428;28;20040;-64
2022/09/30 01:56:45;;;;;;;5.22;2.38;;;;;;;18.59;43.91;100730.22;5061297;28;20530;-64
2022/09/30 01:59:23;;;;;;;5.00;2.47;;;;;;;18.58;44.04;100734.69;5061363;28;20036;-64
2022/09/30 02:01:55;;;;;;;5.03;2.75;;;;;;;18.57;44.05;100742.72;5061341;28;20602;-64
2022/09/30 02:04:27;;;;;;;6.07;2.35;;;;;;;18.46;43.69;100722.50;5061187;28;20041;-65
2022/09/30 02:06:58;;;;;;;4.30;2.30;;;;;;;18.52;43.64;100729.91;5061047;28;20060;-65
2022/09/30 02:09:31;;;;;;;4.60;2.35;;;;;;;18.48;44.01;100726.69;5061187;28;20472;-65
2022/09/30 02:11:59;;;;;;;5.20;2.60;;;;;;;18.46;43.78;100725.16;5061594;28;20028;-64
2022/09/30 02:14:29;;;;;;;4.05;2.30;;;;;;;18.49;43.74;100725.72;5061100;28;20498;-67
2022/09/30 02:17:02;;;;;;;4.20;2.40;;;;;;;18.52;43.71;100740.47;5061248;28;20028;-64
2022/09/30 02:19:37;;;;;;;4.68;2.47;;;;;;;18.52;43.80;100735.19;5061159;28;20166;-64
2022/09/30 02:22:08;;;;;;;4.82;2.53;;;;;;;18.46;43.54;100731.25;5061040;28;20048;-66
2022/09/30 02:24:38;;;;;;;5.95;2.38;;;;;;;18.42;43.46;100726.38;5060879;28;20161;-64
2022/09/30 02:27:10;;;;;;;4.43;2.45;;;;;;;18.43;43.74;100730.69;5061270;28;20070;-64
2022/09/30 02:29:41;;;;;;;4.30;2.10;;;;;;;18.47;43.83;100743.50;5061117;28;20173;-64
2022/09/30 02:32:17;;;;;;;5.75;2.53;;;;;;;18.47;43.68;100743.50;5061203;28;20032;-65
2022/09/30 02:34:50;;;;;;;5.80;2.35;;;;;;;18.46;43.49;100747.09;5060916;28;20132;-65
2022/09/30 02:37:15;;;;;;;4.20;2.28;;;;;;;18.47;43.46;100745.31;5060958;28;20028;-66
2022/09/30 02:39:52;;;;;;;5.23;2.50;;;;;;;18.46;43.68;100735.72;5062032;28;20545;-64
2022/09/30 02:42:27;;;;;;;5.30;2.83;;;;;;;18.49;43.19;100735.44;5065124;28;20507;-64
2022/09/30 02:44:57;;;;;;;4.78;2.42;;;;;;;18.43;43.41;100723.59;5064730;28;20028;-65
2022/09/30 02:47:37;;;;;;;4.43;2.50;;;;;;;18.44;43.35;100730.56;5064427;28;20059;-65
2022/09/30 02:50:17;;;;;;;5.25;2.65;;;;;;;18.46;43.26;100739.16;5064731;28;20078;-66
2022/09/30 02:52:57;;;;;;;5.00;2.50;;;;;;;18.47;43.36;100742.66;5064575;28;20025;-66
2022/09/30 02:56:13;;;;;;;4.88;2.53;;;;;;;18.45;43.23;100745.44;5064373;28;20361;-65
2022/09/30 02:58:42;;;;;;;4.55;2.20;;;;;;;18.45;43.16;100737.53;5046744;28;20047;-66
2022/09/30 03:01:13;;;;;;;4.15;2.17;;;;;;;18.44;43.27;100737.66;5064173;28;20788;-65
2022/09/30 03:03:52;;;;;;;4.47;2.67;;;;;;;18.44;43.12;100732.38;5064510;28;20071;-64
2022/09/30 03:06:18;;;;;;;5.28;2.40;;;;;;;18.34;43.38;100724.41;5062889;28;20059;-64
2022/09/30 03:08:44;;;;;;;4.53;2.50;;;;;;;18.36;43.23;100729.50;5064639;28;20052;-66
2022/09/30 03:11:19;;;;;;;4.15;2.47;;;;;;;18.41;43.01;100733.44;5064241;28;20029;-64
2022/09/30 03:14:15;;;;;;;5.63;2.85;;;;;;;18.40;43.07;100746.78;5063990;28;20037;-66
2022/09/30 03:16:43;;;;;;;5.28;2.80;;;;;;;18.39;43.24;100751.22;5063961;28;20033;-64
2022/09/30 03:19:09;;;;;;;4.45;2.40;;;;;;;18.38;43.42;100749.53;5064129;28;20043;-66
2022/09/30 03:21:55;;;;;;;6.78;2.70;;;;;;;18.37;43.13;100741.75;5063687;28;20037;-64
2022/09/30 03:24:36;;;;;;;4.05;2.45;;;;;;;18.36;43.09;100746.19;5064284;28;20131;-65
2022/09/30 03:27:31;;;;;;;4.82;2.65;;;;;;;18.31;43.19;100743.13;5063928;28;20032;-64
2022/09/30 03:29:59;;;;;;;4.68;2.67;;;;;;;18.37;43.06;100757.59;5062260;28;20075;-64
2022/09/30 03:32:47;;;;;;;6.35;2.90;;;;;;;18.36;43.10;100754.13;5063875;28;20074;-64
2022/09/30 03:35:29;;;;;;;4.22;2.45;;;;;;;18.29;42.99;100745.88;5063522;28;20078;-64
2022/09/30 03:38:12;;;;;;;4.43;2.30;;;;;;;18.37;43.11;100754.94;5063657;28;20032;-63
2022/09/30 03:40:53;;;;;;;6.55;2.97;;;;;;;18.35;43.09;100755.06;5063928;28;20105;-65
2022/09/30 03:43:21;;;;;;;4.90;2.97;;;;;;;18.26;42.82;100735.59;5063518;28;20484;-64
2022/09/30 03:45:58;;;;;;;4.65;2.83;;;;;;;18.28;43.17;100740.72;5063448;28;20036;-64
2022/09/30 03:48:26;;;;;;;3.95;2.65;;;;;;;18.27;42.83;100758.34;5063657;28;20040;-64
2022/09/30 03:50:52;;;;;;;4.70;2.67;;;;;;;18.32;43.07;100765.88;5063335;28;20082;-65
2022/09/30 03:53:17;;;;;;;5.10;2.70;;;;;;;18.11;43.11;100734.22;5063557;28;20044;-65
2022/09/30 03:55:46;;;;;;;5.85;2.80;;;;;;;18.26;43.32;100758.47;5063232;28;20032;-64
2022/09/30 03:58:12;;;;;;;5.25;2.70;;;;;;;18.31;42.79;100777.41;5062998;28;20456;-65
2022/09/30 04:00:44;;;;;;;5.47;2.58;;;;;;;18.25;43.01;100770.00;5063455;28;20035;-64
2022/09/30 04:03:09;;;;;;;4.78;2.72;;;;;;;18.28;42.82;100777.66;5063353;28;20451;-65
2022/09/30 04:05:34;;;;;;;4.45;2.80;;;;;;;18.29;42.93;100782.81;5063425;28;20056;-66
2022/09/30 04:08:00;;;;;;;6.15;2.90;;;;;;;18.30;42.81;100788.91;5063261;28;20033;-64
2022/09/30 04:10:25;;;;;;;4.65;2.80;;;;;;;18.23;43.31;100778.03;5063111;28;20664;-65
2022/09/30 04:12:53;;;;;;;5.93;3.17;;;;;;;18.24;43.00;100790.25;5062892;28;20083;-67
2022/09/30 04:15:18;;;;;;;7.15;2.70;;;;;;;18.08;43.01;100771.38;5063399;28;20323;-65
2022/09/30 04:17:43;;;;;;;5.72;2.97;;;;;;;18.09;43.12;100775.72;5062874;28;20099;-65
2022/09/30 04:20:08;;;;;;;5.30;3.05;;;;;;;18.27;42.63;100811.09;5063186;28;20051;-65
2022/09/30 04:22:34;;;;;;;5.13;3.17;;;;;;;18.21;43.12;100805.50;5062433;28;20551;-65
2022/09/30 04:24:59;;;;;;;5.67;3.00;;;;;;;18.21;42.98;100814.25;5063068;28;20106;-65
2022/09/30 04:27:25;;;;;;;6.13;3.10;;;;;;;18.26;42.95;100827.91;5061054;28;20285;-67
2022/09/30 04:29:50;;;;;;;5.05;2.58;;;;;;;18.20;43.19;100819.66;5062573;28;20269;-64
2022/09/30 04:32:15;;;;;;;6.33;2.90;;;;;;;18.24;42.79;100837.72;5062497;28;20032;-63
2022/09/30 04:34:40;;;;;;;5.28;3.00;;;;;;;18.20;42.94;100824.91;5062617;28;20308;-64
2022/09/30 04:37:06;;;;;;;5.20;3.00;;;;;;;18.25;42.60;100828.03;5062347;28;20028;-65
2022/09/30 04:39:31;;;;;;;5.35;2.63;;;;;;;18.24;42.92;100829.00;5062607;28;20832;-65
2022/09/30 04:41:57;;;;;;;4.97;2.70;;;;;;;18.17;42.71;100819.91;5062267;28;20036;-65
2022/09/30 04:44:23;;;;;;;5.82;3.38;;;;;;;18.23;42.83;100827.31;5062253;28;20265;-64
2022/09/30 04:46:49;;;;;;;5.57;2.70;;;;;;;18.23;42.76;100829.94;5062382;28;20031;-66
2022/09/30 04:49:14;;;;;;;6.65;2.55;;;;;;;18.16;42.55;100828.78;5061147;28;20103;-67
2022/09/30 04:51:42;;;;;;;5.05;2.90;;;;;;;18.22;42.90;100837.03;5062353;28;20153;-65
2022/09/30 04:54:08;;;;;;;7.45;3.00;;;;;;;18.22;42.80;100836.22;5061922;28;20478;-65
2022/09/30 04:56:33;;;;;;;4.70;2.80;;;;;;;18.22;42.35;100836.22;5062148;28;20115;-65
2022/09/30 04:58:58;;;;;;;4.30;2.83;;;;;;;18.21;42.73;100839.78;5061937;28;20045;-63
2022/09/30 05:01:24;;;;;;;4.50;2.95;;;;;;;18.12;42.58;100823.75;5062347;28;20077;-64
2022/09/30 05:03:49;;;;;;;4.43;2.90;;;;;;;18.15;42.63;100840.28;5061304;28;20819;-64
2022/09/30 05:06:15;;;;;;;5.93;3.30;;;;;;;18.15;42.68;100841.16;5062052;28;20078;-65
2022/09/30 05:08:42;;;;;;;7.57;3.30;;;;;;;18.12;42.56;100836.13;5062140;28;20376;-65
2022/09/30 05:11:09;;;;;;;4.80;2.90;;;;;;;18.12;42.66;100839.59;5062062;28;20028;-65
2022/09/30 05:13:39;;;;;;;5.40;2.88;;;;;;;18.19;42.60;100855.75;5061692;28;20033;-65
2022/09/30 05:16:06;;;;;;;5.07;2.97;;;;;;;18.13;42.54;100845.69;5061770;28;20039;-66
2022/09/30 05:18:33;;;;;;;5.20;3.00;;;;;;;18.13;42.74;100845.69;5061573;28;20036;-65
2022/09/30 05:21:00;;;;;;;5.75;2.90;;;;;;;18.18;42.44;100861.16;5061944;28;20029;-65
2022/09/30 05:23:29;;;;;;;5.55;3.30;;;;;;;18.10;42.50;100845.94;5061500;28;20161;-65
2022/09/30 05:25:55;;;;;;;4.10;3.10;;;;;;;18.19;42.49;100868.94;5061492;28;20121;-65
2022/09/30 05:28:20;;;;;;;4.53;2.90;;;;;;;18.13;42.38;100862.38;5062014;28;20028;-64
2022/09/30 05:30:46;;;;;;;4.97;2.72;;;;;;;18.19;42.38;100868.09;5061535;28;20070;-64
2022/09/30 05:33:12;;;;;;;5.05;3.00;;;;;;;18.15;42.53;100853.47;5061649;28;20032;-65
2022/09/30 05:35:40;;;;;;;6.18;2.95;;;;;;;18.12;42.39;100850.13;5061509;28;20029;-66
2022/09/30 05:38:06;;;;;;;5.50;3.40;;;;;;;18.18;42.45;100869.06;5061242;28;20028;-65
2022/09/30 05:40:31;;;;;;;4.65;3.00;;;;;;;18.15;42.26;100867.53;5061262;28;20040;-63
2022/09/30 05:42:58;;;;;;;5.85;3.60;;;;;;;18.13;41.83;100877.34;5061535;28;20029;-66
2022/09/30 05:45:24;;;;;;;5.03;3.10;;;;;;;18.15;42.97;100880.72;5061279;28;20542;-65
2022/09/30 05:47:55;;;;;;;5.53;2.92;;;;;;;18.10;42.83;100885.50;5061319;28;20032;-65
2022/09/30 05:50:23;;;;;;;5.22;3.05;;;;;;;18.16;42.97;100897.38;5061337;28;20040;-67
2022/09/30 05:52:48;;;;;;;5.63;3.50;;;;;;;18.08;42.90;100895.34;5061051;28;20034;-68
2022/09/30 05:55:15;;;;;;;5.13;3.15;;;;;;;18.09;42.80;100894.38;5060860;28;20033;-66
2022/09/30 05:57:41;;;;;;;5.38;3.00;;;;;;;18.14;42.87;100908.03;5061404;28;20085;-68
2022/09/30 06:00:07;;;;;;;5.50;3.10;;;;;;;18.11;43.05;100898.56;5061297;28;20047;-67
2022/09/30 06:02:32;;;;;;;4.32;2.67;;;;;;;18.12;43.13;100886.22;5061078;28;20460;-66
2022/09/30 06:04:58;;;;;;;5.13;3.00;;;;;;;18.22;43.14;100904.78;5061229;28;20041;-65
2022/09/30 06:07:23;;;;;;;5.05;2.97;;;;;;;18.25;43.25;100900.09;5061286;28;20526;-66
2022/09/30 06:09:48;;;;;;;4.95;3.03;;;;;;;18.19;43.07;100891.84;5060905;28;20047;-67
2022/09/30 06:12:14;;;;;;;5.65;2.78;;;;;;;18.41;43.08;100926.06;5059916;28;20033;-66
2022/09/30 06:14:40;;;;;;;5.97;3.13;;;;;;;18.45;42.94;100914.31;5062027;28;20072;-66
2022/09/30 06:17:05;;;;;;;4.45;2.95;;;;;;;18.41;43.38;100904.13;5064907;28;20078;-68
2022/09/30 06:19:31;;;;;;;5.35;2.97;;;;;;;18.50;43.65;100919.22;5062819;28;20835;-67
2022/09/30 06:21:57;;;;;;;5.07;2.83;;;;;;;18.59;43.85;100921.09;5063994;28;20039;-67
2022/09/30 06:24:23;;;;;;;6.63;3.10;;;;;;;18.57;43.58;100907.19;5064333;28;20032;-67
2022/09/30 06:26:48;;;;;;;7.85;3.53;;;;;;;18.70;43.49;100920.22;5065318;28;20027;-67
2022/09/30 06:29:13;;;;;;;4.80;2.80;;;;;;;18.68;43.25;100924.78;5062973;28;20054;-67
2022/09/30 06:31:39;;;;;;;6.43;2.90;;;;;;;18.83;43.24;100934.09;5065095;28;20460;-67
2022/09/30 06:34:05;;;;;;;5.25;3.05;;;;;;;18.83;43.32;100931.44;5064976;28;20376;-67
2022/09/30 06:36:32;;;;;;;4.90;2.60;;;;;;;18.93;43.01;100938.63;5064865;28;20114;-68
2022/09/30 06:39:01;;;;;;;6.03;3.13;;;;;;;18.96;43.03;100935.72;5064839;28;20028;-68
2022/09/30 06:41:27;;;;;;;4.85;3.03;;;;;;;18.98;43.12;100933.81;5065010;28;20563;-69
2022/09/30 06:43:53;;;;;;;6.70;3.60;;;;;;;18.90;42.69;100912.47;5064805;28;20036;-72
2022/09/30 06:46:20;;;;;;;4.63;3.00;;;;;;;18.93;42.96;100912.22;5065004;28;20036;-69
2022/09/30 06:48:45;;;;;;;5.07;3.13;;;;;;;18.98;42.81;100926.72;5064447;28;20098;-65
2022/09/30 06:51:14;;;;;;;4.45;3.00;;;;;;;18.99;43.09;100932.81;5064537;28;20024;-64
2022/09/30 06:53:39;;;;;;;6.03;2.97;;;;;;;18.99;43.10;100924.91;5064462;28;20074;-66
2022/09/30 06:56:05;;;;;;;5.38;3.10;;;;;;;18.96;43.42;100915.44;5064255;28;20032;-64
2022/09/30 06:58:31;;;;;;;6.72;4.15;;;;;;;18.98;42.67;100915.31;5064573;28;20036;-64
2022/09/30 07:01:02;;;;;;;5.78;3.30;;;;;;;18.98;43.08;100921.44;5064290;28;20032;-65
2022/09/30 07:03:30;;;;;;;5.32;3.35;;;;;;;19.05;43.47;100927.03;5064538;28;20060;-63
2022/09/30 07:06:00;;;;;;;6.43;3.30;;;;;;;19.05;43.53;100924.41;5064604;28;20458;-64
2022/09/30 07:08:30;;;;;;;8.40;3.63;;;;;;;18.95;43.55;100905.00;5062371;28;20028;-69
2022/09/30 07:11:01;;;;;;;7.82;4.00;;;;;;;19.05;43.68;100924.41;5062853;28;20469;-66
2022/09/30 07:13:27;;;;;;;7.78;3.72;;;;;;;19.01;44.00;100923.00;5063435;28;20033;-67
2022/09/30 07:15:55;;;;;;;8.52;3.88;;;;;;;19.13;43.69;100935.16;5063410;28;20024;-70
2022/09/30 07:18:21;;;;;;;5.90;3.42;;;;;;;19.17;43.81;100927.81;5063621;28;20115;-67
2022/09/30 07:20:48;;;;;;;7.22;3.65;;;;;;;19.20;43.84;100925.75;5063472;28;20036;-65
2022/09/30 07:23:14;;;;;;;6.90;3.60;;;;;;;19.20;43.68;100920.47;5063271;28;20051;-64
2022/09/30 07:25:39;;;;;;;4.88;3.33;;;;;;;19.32;43.56;100934.44;5062847;28;20033;-67
2022/09/30 07:28:04;;;;;;;5.87;3.53;;;;;;;19.24;43.50;100915.75;5064027;28;20020;-65
2022/09/30 07:30:30;;;;;;;5.03;3.13;;;;;;;19.25;43.64;100922.72;5062433;28;20293;-65
2022/09/30 07:32:55;;;;;;;7.28;3.53;;;;;;;19.33;43.83;100944.03;5062019;28;20354;-72
2022/09/30 07:35:20;;;;;;;5.75;3.75;;;;;;;19.34;43.43;100950.16;5063619;28;20188;-71
2022/09/30 07:37:46;;;;;;;6.83;3.70;;;;;;;19.37;43.56;100945.44;5063390;28;20024;-68
2022/09/30 07:40:11;;;;;;;6.35;3.50;;;;;;;19.40;43.60;100931.13;5062497;28;20273;-69
2022/09/30 07:42:44;;;;;;;6.28;3.95;;;;;;;19.42;43.50;100926.56;5062907;28;20059;-70
2022/09/30 07:45:09;;;;;;;5.53;3.45;;;;;;;19.44;43.48;100950.22;5063117;28;20025;-69
2022/09/30 07:47:35;;;;;;;9.25;3.83;;;;;;;19.42;43.31;100946.88;5062606;28;20032;-67
2022/09/30 07:50:00;;;;;;;7.10;3.50;;;;;;;19.43;43.31;100932.69;5062571;28;20040;-69
2022/09/30 07:52:25;;;;;;;7.05;3.65;;;;;;;19.47;43.48;100929.66;5062601;28;20257;-65
2022/09/30 07:54:50;;;;;;;6.43;3.77;;;;;;;19.52;43.45;100934.56;5062892;28;20024;-68
2022/09/30 07:57:16;;;;;;;5.80;3.50;;;;;;;19.44;43.70;100924.63;5062437;28;20609;-70
2022/09/30 07:59:41;;;;;;;6.72;3.75;;;;;;;19.50;43.41;100939.13;5062792;28;20305;-68
2022/09/30 08:02:13;;;;;;;5.70;3.65;;;;;;;19.44;43.53;100935.22;5062525;28;20449;-65
2022/09/30 08:04:38;;;;;;;5.97;3.60;;;;;;;19.47;43.78;100953.44;5063432;28;20040;-67
2022/09/30 08:07:04;;;;;;;5.10;3.20;;;;;;;19.45;44.02;100949.25;5062850;28;20021;-66
2022/09/30 08:09:30;;;;;;;5.75;3.80;;;;;;;19.41;43.90;100935.47;5063006;28;20265;-67
2022/09/30 08:11:55;;;;;;;5.55;3.78;;;;;;;19.35;44.03;100933.34;5062603;28;20043;-67
2022/09/30 08:14:23;;;;;;;5.63;3.70;;;;;;;19.35;43.76;100930.69;5063044;28;20561;-68
2022/09/30 08:16:49;;;;;;;6.90;3.75;;;;;;;19.32;44.15;100934.44;5063055;28;20028;-66
2022/09/30 08:19:17;;;;;;;5.72;3.30;;;;;;;19.34;44.06;100935.16;5062643;28;20353;-67
2022/09/30 08:21:43;;;;;;;7.28;3.85;;;;;;;19.30;44.09;100927.63;5062619;28;20025;-67
2022/09/30 08:24:09;;;;;;;5.80;3.90;;;;;;;19.35;44.09;100947.38;5062790;28;20082;-67
2022/09/30 08:26:35;;;;;;;5.85;3.75;;;;;;;19.36;44.04;100951.72;5062734;28;20460;-66
2022/09/30 08:29:00;;;;;;;6.57;3.35;;;;;;;19.26;44.02;100934.94;5063017;28;20047;-65
2022/09/30 08:31:26;;;;;;;5.65;3.60;;;;;;;19.30;44.27;100943.47;5062879;28;20028;-67
2022/09/30 08:33:52;;;;;;;7.47;3.47;;;;;;;19.33;44.20;100954.63;5062790;28;20076;-66
2022/09/30 08:36:20;;;;;;;7.38;3.70;;;;;;;19.26;44.35;100942.88;5062220;28;20598;-67
2022/09/30 08:38:46;;;;;;;5.40;3.80;;;;;;;19.30;44.22;100941.66;5061987;28;20024;-66
2022/09/30 08:41:38;;;;;;;6.10;3.80;;;;;;;19.30;44.30;100943.47;5062367;28;20024;-67
2022/09/30 08:44:25;;;;;;;5.78;3.83;;;;;;;19.29;44.48;100939.97;5062628;28;20090;-67
2022/09/30 08:47:18;;;;;;;6.15;4.15;;;;;;;19.29;44.74;100941.78;5062409;28;20036;-68
2022/09/30 08:50:00;;;;;;;6.05;3.92;;;;;;;19.21;44.34;100943.25;5062815;28;20043;-67
2022/09/30 08:52:28;;;;;;;6.15;3.78;;;;;;;19.25;44.49;100946.50;5064296;28;20024;-68
2022/09/30 08:54:55;;;;;;;6.28;3.53;;;;;;;19.26;44.57;100958.72;5061862;28;20036;-66
2022/09/30 08:57:23;;;;;;;6.30;3.50;;;;;;;19.27;44.83;100957.78;5062489;28;20032;-66
2022/09/30 08:59:59;;;;;;;6.80;3.40;;;;;;;19.23;44.62;100948.41;5061980;28;20107;-66
2022/09/30 09:02:33;;;;;;;5.63;3.17;;;;;;;19.26;44.76;100948.16;5062432;28;20465;-68
2022/09/30 09:05:01;;;;;;;;;;;;;;;19.23;44.74;100955.50;5062234;28;20043;-67
2022/09/30 09:07:42;;;;;;;5.47;3.20;;;;;;;19.19;45.12;100950.50;5061762;28;19916;-68
2022/09/30 09:10:38;;;;;;;5.00;3.17;;;;;;;19.25;44.91;100951.78;5061951;28;20041;-67
2022/09/30 09:13:12;;;;;;;4.97;3.20;;;;;;;19.26;44.88;100942.03;5061645;28;20146;-67
2022/09/30 09:15:59;;;;;;;5.22;3.40;;;;;;;19.25;45.00;100945.66;5061971;28;20056;-67
2022/09/30 09:18:38;;;;;;;5.50;3.40;;;;;;;19.24;44.92;100950.09;5061824;28;20035;-66
2022/09/30 09:21:35;;;;;;;5.47;3.80;;;;;;;19.18;44.98;100937.41;5060330;28;20021;-66
2022/09/30 09:24:02;;;;;;;5.20;3.20;;;;;;;19.16;45.28;100944.63;5061386;28;20048;-67
2022/09/30 09:26:35;;;;;;;5.50;2.90;;;;;;;19.19;45.11;100939.91;5061662;28;20044;-66
2022/09/30 09:29:38;;;;;;;5.43;3.38;;;;;;;19.27;45.11;100946.38;5061617;28;20267;-67
2022/09/30 09:32:12;;;;;;;4.87;3.33;;;;;;;19.19;45.35;100945.19;5060094;28;20475;-66
2022/09/30 09:34:39;;;;;;;4.60;2.80;;;;;;;19.13;44.95;100937.78;5061066;28;20835;-67
2022/09/30 09:38:23;;;;;;;5.28;3.13;;;;;;;19.28;45.35;100969.16;5062088;28;20039;-67
2022/09/30 09:40:33;;;;;;;4.45;2.60;;;;;;;19.17;45.40;100949.78;5060901;28;20051;-66
2022/09/30 09:43:29;;;;;;;5.43;2.72;;;;;;;19.23;45.27;100950.22;5061450;28;20036;-67
2022/09/30 09:46:02;;;;;;;4.03;2.63;;;;;;;19.22;45.36;100938.84;5061387;28;20029;-65
2022/09/30 09:48:29;;;;;;;4.77;2.70;;;;;;;19.25;45.51;100940.34;5059968;28;20024;-70
2022/09/30 09:51:14;;;;;;;5.07;3.08;;;;;;;19.34;45.83;100950.16;5058996;28;20832;-70
2022/09/30 09:53:47;;;;;;;5.78;2.80;;;;;;;19.37;46.09;100948.09;5060685;28;20055;-64
2022/09/30 09:56:19;;;;;;;4.35;2.58;;;;;;;19.39;45.99;100943.53;5060692;28;20039;-66
2022/09/30 09:59:23;;;;;;;5.30;2.70;;;;;;;19.39;46.05;100940.88;5060816;28;20573;-68
2022/09/30 10:01:51;;;;;;;4.72;2.58;;;;;;;19.42;46.24;100945.06;5017345;28;20042;-64
2022/09/30 10:04:24;;;;;;;5.00;2.58;;;;;;;19.30;46.34;100925.81;5017313;28;20039;-63
2022/09/30 10:07:00;;;;;;;4.10;2.55;;;;;;;19.42;46.22;100941.59;5040689;28;20123;-65
2022/09/30 10:09:35;;;;;;;5.60;2.55;;;;;;;19.38;45.89;100925.97;5061306;28;20028;-65
2022/09/30 10:12:06;;;;;;;5.25;2.38;;;;;;;19.48;46.22;100933.13;5060847;28;20147;-65
2022/09/30 10:14:46;;;;;;;4.35;2.40;;;;;;;19.45;46.32;100931.56;5060863;28;20029;-66
2022/09/30 10:17:20;;;;;;;4.82;2.60;;;;;;;19.47;46.90;100929.66;5061211;28;20082;-67
2022/09/30 10:19:52;;;;;;;4.60;2.47;;;;;;;19.45;46.41;100936.03;5061352;28;20112;-64
2022/09/30 10:22:23;;;;;;;4.47;2.13;;;;;;;19.45;46.73;100928.94;5060634;28;20526;-64
2022/09/30 10:24:48;;;;;;;6.35;2.60;;;;;;;19.47;46.67;100936.72;5060662;28;20068;-63
2022/09/30 10:27:33;;;;;;;7.28;2.05;;;;;;;19.49;46.35;100948.88;5061277;28;20074;-64
2022/09/30 10:29:58;;;;;;;;;;;;;;;19.54;46.58;100961.69;5061119;28;20482;-66
2022/09/30 10:32:24;;;;;;;4.23;2.10;;;;;;;19.51;46.68;100944.28;5059293;28;19920;-65
2022/09/30 10:35:10;;;;;;;4.25;2.05;;;;;;;19.58;46.64;100950.72;5060669;28;20119;-64
2022/09/30 10:37:35;;;;;;;5.28;2.30;;;;;;;19.58;46.48;100949.88;5058546;28;20033;-64
2022/09/30 10:40:06;;;;;;;3.58;1.88;;;;;;;19.52;46.64;100947.78;5060196;28;20418;-65
2022/09/30 10:42:34;;;;;;;4.85;2.15;;;;;;;19.52;46.82;100951.25;5060091;28;20041;-66
2022/09/30 10:45:05;;;;;;;3.47;1.90;;;;;;;19.53;46.53;100946.78;5059423;28;20029;-66
2022/09/30 10:47:32;;;;;;;3.75;1.70;;;;;;;19.56;46.64;100947.34;5059144;28;20054;-64
2022/09/30 10:50:20;;;;;;;5.45;1.95;;;;;;;19.53;46.55;100938.84;5058539;28;20094;-66
2022/09/30 10:52:57;;;;;;;3.53;1.70;;;;;;;19.54;46.65;100935.25;5059340;28;20372;-68
2022/09/30 10:55:28;;;;;;;5.90;2.05;;;;;;;19.56;46.60;100943.88;5059700;28;20028;-68
2022/09/30 10:57:55;;;;;;;4.65;2.00;;;;;;;19.51;46.57;100933.69;5060075;28;20028;-69
2022/09/30 11:00:24;;;;;;;3.10;1.60;;;;;;;19.55;46.54;100939.56;5058999;28;20036;-65
2022/09/30 11:02:58;;;;;;;4.45;1.80;;;;;;;19.54;46.44;100936.09;5063976;28;20029;-65
2022/09/30 11:05:27;;;;;;;;;;;;;;;19.60;46.39;100941.81;5064687;28;20024;-66
2022/09/30 11:08:24;;;;;;;4.07;1.55;;;;;;;19.61;46.49;100949.59;5064028;28;19912;-65
2022/09/30 11:10:55;;;;;;;4.78;1.90;;;;;;;19.62;46.48;100940.72;5063862;28;20032;-64
2022/09/30 11:13:35;;;;;;;3.35;1.40;;;;;;;19.62;46.75;100943.34;5063853;28;20067;-66
2022/09/30 11:16:09;;;;;;;3.13;1.65;;;;;;;19.63;46.53;100934.47;5064078;28;20119;-65
2022/09/30 11:18:43;;;;;;;4.07;1.85;;;;;;;19.65;46.48;100934.34;5063757;28;20071;-64
2022/09/30 11:21:28;;;;;;;7.07;1.77;;;;;;;19.56;46.58;100926.19;5063081;28;20055;-63
2022/09/30 11:24:13;;;;;;;;;;;;;;;19.62;46.40;100931.97;5063243;28;20126;-66
2022/09/30 11:26:57;;;;;;;;;;;;;;;19.60;46.59;100944.44;5063769;28;20035;-64
2022/09/30 11:29:37;;;;;;;4.05;1.50;;;;;;;19.62;46.66;100940.72;5063571;28;19924;-64
2022/09/30 11:32:26;;;;;;;3.78;1.40;;;;;;;19.60;46.34;100937.38;5063196;28;20059;-64
2022/09/30 11:35:07;;;;;;;2.97;1.50;;;;;;;19.60;46.51;100933.88;5063493;28;20028;-66
2022/09/30 11:37:51;;;;;;;3.40;1.67;;;;;;;19.55;46.32;100924.56;5063617;28;20492;-65
2022/09/30 11:40:26;;;;;;;4.47;1.35;;;;;;;19.53;46.28;100918.53;5064007;28;20055;-63
2022/09/30 11:42:57;;;;;;;3.22;1.27;;;;;;;19.58;46.17;100926.94;5063727;28;20447;-65
2022/09/30 11:45:39;;;;;;;4.75;1.50;;;;;;;19.55;46.31;100918.41;5063796;28;20472;-64
2022/09/30 11:48:20;;;;;;;2.60;1.30;;;;;;;19.58;46.21;100916.34;5063630;28;20028;-66